sensor_id;sensor_type;location;lat;lon;timestamp;temperature;humidity
6106;DHT22;3083;51.508;7.966;2023-04-01T00:00:25;9.10;99.90
6106;DHT22;3083;51.508;7.966;2023-04-01T00:02:52;9.10;99.90
6106;DHT22;3083;51.508;7.966;2023-04-01T00:05:19;9.10;99.90
6106;DHT22;3083;51.508;7.966;2023-04-01T00:07:46;9.10;99.90
6106;DHT22;3083;51.508;7.966;2023-04-01T00:10:15;9.10;99.90
6106;DHT22;3083;51.508;7.966;2023-04-01T00:12:44;9.10;99.90
6106;DHT22;3083;51.508;7.966;2023-04-01T00:15:11;9.10;99.90
6106;DHT22;3083;51.508;7.966;2023-04-01T00:17:38;9.10;99.90
6106;DHT22;3083;51.508;7.966;2023-04-01T00:20:06;9.10;99.90
6106;DHT22;3083;51.508;7.966;2023-04-01T00:22:35;9.10;99.90
6106;DHT22;3083;51.508;7.966;2023-04-01T00:25:02;9.10;99.90
6106;DHT22;3083;51.508;7.966;2023-04-01T00:27:29;9.10;99.90
6106;DHT22;3083;51.508;7.966;2023-04-01T00:29:58;9.10;99.90
6106;DHT22;3083;51.508;7.966;2023-04-01T00:32:25;9.10;99.90
6106;DHT22;3083;51.508;7.966;2023-04-01T00:34:52;9.10;99.90
6106;DHT22;3083;51.508;7.966;2023-04-01T00:37:20;9.10;99.90
6106;DHT22;3083;51.508;7.966;2023-04-01T00:39:47;9.10;99.90
6106;DHT22;3083;51.508;7.966;2023-04-01T00:42:14;9.10;99.90
6106;DHT22;3083;51.508;7.966;2023-04-01T00:44:42;9.00;99.90
6106;DHT22;3083;51.508;7.966;2023-04-01T00:47:11;9.00;99.90
6106;DHT22;3083;51.508;7.966;2023-04-01T00:49:39;9.00;99.90
6106;DHT22;3083;51.508;7.966;2023-04-01T00:52:08;9.00;99.90
6106;DHT22;3083;51.508;7.966;2023-04-01T00:54:38;9.00;99.90
6106;DHT22;3083;51.508;7.966;2023-04-01T00:57:12;9.00;99.90
6106;DHT22;3083;51.508;7.966;2023-04-01T00:59:43;9.00;99.90
6106;DHT22;3083;51.508;7.966;2023-04-01T01:02:13;9.00;99.90
6106;DHT22;3083;51.508;7.966;2023-04-01T01:04:41;8.90;99.90
6106;DHT22;3083;51.508;7.966;2023-04-01T01:07:19;8.90;99.90
6106;DHT22;3083;51.508;7.966;2023-04-01T01:09:52;9.00;99.90
6106;DHT22;3083;51.508;7.966;2023-04-01T01:12:25;8.90;99.90
6106;DHT22;3083;51.508;7.966;2023-04-01T01:15:05;8.90;99.90
6106;DHT22;3083;51.508;7.966;2023-04-01T01:17:44;8.90;99.90
6106;DHT22;3083;51.508;7.966;2023-04-01T01:20:32;8.90;99.90
6106;DHT22;3083;51.508;7.966;2023-04-01T01:26:09;8.90;99.90
6106;DHT22;3083;51.508;7.966;2023-04-01T01:28:50;8.90;99.90
6106;DHT22;3083;51.508;7.966;2023-04-01T01:31:25;8.90;99.90
6106;DHT22;3083;51.508;7.966;2023-04-01T01:34:09;8.90;99.90
6106;DHT22;3083;51.508;7.966;2023-04-01T01:36:42;8.90;99.90
6106;DHT22;3083;51.508;7.966;2023-04-01T01:39:12;8.90;99.90
6106;DHT22;3083;51.508;7.966;2023-04-01T01:41:42;8.90;99.90
6106;DHT22;3083;51.508;7.966;2023-04-01T01:44:12;8.90;99.90
6106;DHT22;3083;51.508;7.966;2023-04-01T01:46:42;8.90;99.90
6106;DHT22;3083;51.508;7.966;2023-04-01T01:49:09;8.90;99.90
6106;DHT22;3083;51.508;7.966;2023-04-01T01:51:37;8.90;99.90
6106;DHT22;3083;51.508;7.966;2023-04-01T01:54:06;8.90;99.90
6106;DHT22;3083;51.508;7.966;2023-04-01T01:56:34;8.90;99.90
6106;DHT22;3083;51.508;7.966;2023-04-01T01:59:04;8.90;99.90
6106;DHT22;3083;51.508;7.966;2023-04-01T02:01:36;8.90;99.90
6106;DHT22;3083;51.508;7.966;2023-04-01T02:04:06;8.90;99.90
6106;DHT22;3083;51.508;7.966;2023-04-01T02:06:37;8.90;99.90
6106;DHT22;3083;51.508;7.966;2023-04-01T02:09:08;8.90;99.90
6106;DHT22;3083;51.508;7.966;2023-04-01T02:11:38;8.90;99.90
6106;DHT22;3083;51.508;7.966;2023-04-01T02:14:10;8.90;99.90
6106;DHT22;3083;51.508;7.966;2023-04-01T02:16:44;8.90;99.90
6106;DHT22;3083;51.508;7.966;2023-04-01T02:19:13;8.90;99.90
6106;DHT22;3083;51.508;7.966;2023-04-01T02:21:42;8.90;99.90
6106;DHT22;3083;51.508;7.966;2023-04-01T02:24:13;8.90;99.90
6106;DHT22;3083;51.508;7.966;2023-04-01T02:26:41;8.90;99.90
6106;DHT22;3083;51.508;7.966;2023-04-01T02:29:08;8.90;99.90
6106;DHT22;3083;51.508;7.966;2023-04-01T02:31:36;8.90;99.90
6106;DHT22;3083;51.508;7.966;2023-04-01T02:34:03;8.90;99.90
6106;DHT22;3083;51.508;7.966;2023-04-01T02:36:30;8.90;99.90
6106;DHT22;3083;51.508;7.966;2023-04-01T02:38:58;8.90;99.90
6106;DHT22;3083;51.508;7.966;2023-04-01T02:41:29;8.90;99.90
6106;DHT22;3083;51.508;7.966;2023-04-01T02:43:56;8.90;99.90
6106;DHT22;3083;51.508;7.966;2023-04-01T02:46:24;8.90;99.90
6106;DHT22;3083;51.508;7.966;2023-04-01T02:48:52;8.90;99.90
6106;DHT22;3083;51.508;7.966;2023-04-01T02:51:19;8.90;99.90
6106;DHT22;3083;51.508;7.966;2023-04-01T02:53:46;8.90;99.90
6106;DHT22;3083;51.508;7.966;2023-04-01T02:56:13;8.90;99.90
6106;DHT22;3083;51.508;7.966;2023-04-01T02:58:41;8.90;99.90
6106;DHT22;3083;51.508;7.966;2023-04-01T03:01:08;8.80;99.90
6106;DHT22;3083;51.508;7.966;2023-04-01T03:03:35;8.80;99.90
6106;DHT22;3083;51.508;7.966;2023-04-01T03:06:05;8.80;99.90
6106;DHT22;3083;51.508;7.966;2023-04-01T03:08:32;8.80;99.90
6106;DHT22;3083;51.508;7.966;2023-04-01T03:10:59;8.90;99.90
6106;DHT22;3083;51.508;7.966;2023-04-01T03:13:26;8.90;99.90
6106;DHT22;3083;51.508;7.966;2023-04-01T03:15:54;8.90;99.90
6106;DHT22;3083;51.508;7.966;2023-04-01T03:18:21;8.80;99.90
6106;DHT22;3083;51.508;7.966;2023-04-01T03:20:48;8.80;99.90
6106;DHT22;3083;51.508;7.966;2023-04-01T03:23:15;8.80;99.90
6106;DHT22;3083;51.508;7.966;2023-04-01T03:25:44;8.80;99.90
6106;DHT22;3083;51.508;7.966;2023-04-01T03:28:11;8.80;99.90
6106;DHT22;3083;51.508;7.966;2023-04-01T03:30:39;8.80;99.90
6106;DHT22;3083;51.508;7.966;2023-04-01T03:33:07;8.80;99.90
6106;DHT22;3083;51.508;7.966;2023-04-01T03:35:34;8.80;99.90
6106;DHT22;3083;51.508;7.966;2023-04-01T03:38:02;8.80;99.90
6106;DHT22;3083;51.508;7.966;2023-04-01T03:40:29;8.80;99.90
6106;DHT22;3083;51.508;7.966;2023-04-01T03:42:55;8.80;99.90
6106;DHT22;3083;51.508;7.966;2023-04-01T03:45:22;8.80;99.90
6106;DHT22;3083;51.508;7.966;2023-04-01T03:47:49;8.80;99.90
6106;DHT22;3083;51.508;7.966;2023-04-01T03:50:18;8.80;99.90
6106;DHT22;3083;51.508;7.966;2023-04-01T03:52:45;8.80;99.90
6106;DHT22;3083;51.508;7.966;2023-04-01T03:55:12;8.80;99.90
6106;DHT22;3083;51.508;7.966;2023-04-01T03:57:38;8.80;99.90
6106;DHT22;3083;51.508;7.966;2023-04-01T04:00:07;8.70;99.90
6106;DHT22;3083;51.508;7.966;2023-04-01T04:02:35;8.70;99.90
6106;DHT22;3083;51.508;7.966;2023-04-01T04:05:02;8.70;99.90
6106;DHT22;3083;51.508;7.966;2023-04-01T04:07:30;8.70;99.90
6106;DHT22;3083;51.508;7.966;2023-04-01T04:09:57;8.70;99.90
6106;DHT22;3083;51.508;7.966;2023-04-01T04:12:24;8.80;99.90
6106;DHT22;3083;51.508;7.966;2023-04-01T04:14:51;8.70;99.90
6106;DHT22;3083;51.508;7.966;2023-04-01T04:17:18;8.70;99.90
6106;DHT22;3083;51.508;7.966;2023-04-01T04:19:45;8.70;99.90
6106;DHT22;3083;51.508;7.966;2023-04-01T04:22:12;8.70;99.90
6106;DHT22;3083;51.508;7.966;2023-04-01T04:24:40;8.70;99.90
6106;DHT22;3083;51.508;7.966;2023-04-01T04:27:07;8.60;99.90
6106;DHT22;3083;51.508;7.966;2023-04-01T04:29:34;8.70;99.90
6106;DHT22;3083;51.508;7.966;2023-04-01T04:32:00;8.70;99.90
6106;DHT22;3083;51.508;7.966;2023-04-01T04:34:27;8.70;99.90
6106;DHT22;3083;51.508;7.966;2023-04-01T04:36:54;8.60;99.90
6106;DHT22;3083;51.508;7.966;2023-04-01T04:39:21;8.60;99.90
6106;DHT22;3083;51.508;7.966;2023-04-01T04:41:49;8.60;99.90
6106;DHT22;3083;51.508;7.966;2023-04-01T04:44:16;8.60;99.90
6106;DHT22;3083;51.508;7.966;2023-04-01T04:46:43;8.60;99.90
6106;DHT22;3083;51.508;7.966;2023-04-01T04:49:10;8.60;99.90
6106;DHT22;3083;51.508;7.966;2023-04-01T04:51:37;8.60;99.90
6106;DHT22;3083;51.508;7.966;2023-04-01T04:54:05;8.60;99.90
6106;DHT22;3083;51.508;7.966;2023-04-01T04:56:32;8.60;99.90
6106;DHT22;3083;51.508;7.966;2023-04-01T04:59:00;8.60;99.90
6106;DHT22;3083;51.508;7.966;2023-04-01T05:01:28;8.60;99.90
6106;DHT22;3083;51.508;7.966;2023-04-01T05:03:55;8.60;99.90
6106;DHT22;3083;51.508;7.966;2023-04-01T05:06:21;8.60;99.90
6106;DHT22;3083;51.508;7.966;2023-04-01T05:08:48;8.60;99.90
6106;DHT22;3083;51.508;7.966;2023-04-01T05:11:17;8.60;99.90
6106;DHT22;3083;51.508;7.966;2023-04-01T05:13:45;8.60;99.90
6106;DHT22;3083;51.508;7.966;2023-04-01T05:16:15;8.60;99.90
6106;DHT22;3083;51.508;7.966;2023-04-01T05:18:43;8.60;99.90
6106;DHT22;3083;51.508;7.966;2023-04-01T05:21:12;8.60;99.90
6106;DHT22;3083;51.508;7.966;2023-04-01T05:23:39;8.60;99.90
6106;DHT22;3083;51.508;7.966;2023-04-01T05:26:07;8.60;99.90
6106;DHT22;3083;51.508;7.966;2023-04-01T05:28:34;8.70;99.90
6106;DHT22;3083;51.508;7.966;2023-04-01T05:31:02;8.70;99.90
6106;DHT22;3083;51.508;7.966;2023-04-01T05:33:31;8.70;99.90
6106;DHT22;3083;51.508;7.966;2023-04-01T05:36:07;8.70;99.90
6106;DHT22;3083;51.508;7.966;2023-04-01T05:38:34;8.80;99.90
6106;DHT22;3083;51.508;7.966;2023-04-01T05:41:02;8.80;99.90
6106;DHT22;3083;51.508;7.966;2023-04-01T05:43:29;8.80;99.90
6106;DHT22;3083;51.508;7.966;2023-04-01T05:45:56;8.80;99.90
6106;DHT22;3083;51.508;7.966;2023-04-01T05:48:23;8.80;99.90
6106;DHT22;3083;51.508;7.966;2023-04-01T05:50:51;8.80;99.90
6106;DHT22;3083;51.508;7.966;2023-04-01T05:53:18;8.80;99.90
6106;DHT22;3083;51.508;7.966;2023-04-01T05:55:45;8.90;99.90
6106;DHT22;3083;51.508;7.966;2023-04-01T05:58:12;8.90;99.90
6106;DHT22;3083;51.508;7.966;2023-04-01T06:00:39;8.90;99.90
6106;DHT22;3083;51.508;7.966;2023-04-01T06:03:06;8.90;99.90
6106;DHT22;3083;51.508;7.966;2023-04-01T06:05:39;9.00;99.90
6106;DHT22;3083;51.508;7.966;2023-04-01T06:08:10;9.00;99.90
6106;DHT22;3083;51.508;7.966;2023-04-01T06:10:46;9.00;99.90
6106;DHT22;3083;51.508;7.966;2023-04-01T06:13:22;9.00;99.90
6106;DHT22;3083;51.508;7.966;2023-04-01T06:15:59;9.00;99.90
6106;DHT22;3083;51.508;7.966;2023-04-01T06:18:42;9.10;99.90
6106;DHT22;3083;51.508;7.966;2023-04-01T06:21:30;9.10;99.90
6106;DHT22;3083;51.508;7.966;2023-04-01T06:24:12;9.10;99.90
6106;DHT22;3083;51.508;7.966;2023-04-01T06:26:48;9.10;99.90
6106;DHT22;3083;51.508;7.966;2023-04-01T06:29:39;9.20;99.90
6106;DHT22;3083;51.508;7.966;2023-04-01T06:35:17;9.40;99.90
6106;DHT22;3083;51.508;7.966;2023-04-01T06:38:17;9.50;99.90
6106;DHT22;3083;51.508;7.966;2023-04-01T06:41:01;9.60;99.90
6106;DHT22;3083;51.508;7.966;2023-04-01T06:43:41;9.70;99.90
6106;DHT22;3083;51.508;7.966;2023-04-01T06:46:18;9.70;99.90
6106;DHT22;3083;51.508;7.966;2023-04-01T06:48:57;9.80;99.90
6106;DHT22;3083;51.508;7.966;2023-04-01T06:51:37;9.80;99.90
6106;DHT22;3083;51.508;7.966;2023-04-01T06:54:10;9.90;99.90
6106;DHT22;3083;51.508;7.966;2023-04-01T06:56:42;10.00;99.90
6106;DHT22;3083;51.508;7.966;2023-04-01T06:59:15;10.10;99.90
6106;DHT22;3083;51.508;7.966;2023-04-01T07:01:46;10.20;99.90
6106;DHT22;3083;51.508;7.966;2023-04-01T07:04:16;10.40;99.90
6106;DHT22;3083;51.508;7.966;2023-04-01T07:06:48;10.50;99.90
6106;DHT22;3083;51.508;7.966;2023-04-01T07:09:19;10.60;99.90
6106;DHT22;3083;51.508;7.966;2023-04-01T07:11:50;10.70;99.90
6106;DHT22;3083;51.508;7.966;2023-04-01T07:14:24;10.80;99.90
6106;DHT22;3083;51.508;7.966;2023-04-01T07:16:56;10.90;99.90
6106;DHT22;3083;51.508;7.966;2023-04-01T07:19:30;10.90;99.90
6106;DHT22;3083;51.508;7.966;2023-04-01T07:22:01;11.00;99.90
6106;DHT22;3083;51.508;7.966;2023-04-01T07:24:35;11.00;99.90
6106;DHT22;3083;51.508;7.966;2023-04-01T07:27:10;11.10;99.90
6106;DHT22;3083;51.508;7.966;2023-04-01T07:29:38;11.10;99.90
6106;DHT22;3083;51.508;7.966;2023-04-01T07:32:26;11.10;99.90
6106;DHT22;3083;51.508;7.966;2023-04-01T07:35:13;11.20;99.90
6106;DHT22;3083;51.508;7.966;2023-04-01T07:37:52;11.30;99.90
6106;DHT22;3083;51.508;7.966;2023-04-01T07:40:26;11.50;99.90
6106;DHT22;3083;51.508;7.966;2023-04-01T07:43:17;11.70;99.90
6106;DHT22;3083;51.508;7.966;2023-04-01T07:45:52;11.80;99.90
6106;DHT22;3083;51.508;7.966;2023-04-01T07:48:26;11.80;99.90
6106;DHT22;3083;51.508;7.966;2023-04-01T07:51:02;11.80;99.90
6106;DHT22;3083;51.508;7.966;2023-04-01T07:53:33;11.80;99.90
6106;DHT22;3083;51.508;7.966;2023-04-01T07:56:06;11.70;99.90
6106;DHT22;3083;51.508;7.966;2023-04-01T07:58:44;11.70;99.90
6106;DHT22;3083;51.508;7.966;2023-04-01T08:01:17;11.60;99.90
6106;DHT22;3083;51.508;7.966;2023-04-01T08:04:25;11.60;99.90
6106;DHT22;3083;51.508;7.966;2023-04-01T08:06:58;11.50;99.90
6106;DHT22;3083;51.508;7.966;2023-04-01T08:09:33;11.50;99.90
6106;DHT22;3083;51.508;7.966;2023-04-01T08:12:11;11.40;99.90
6106;DHT22;3083;51.508;7.966;2023-04-01T08:14:52;11.30;99.90
6106;DHT22;3083;51.508;7.966;2023-04-01T08:17:28;11.30;99.90
6106;DHT22;3083;51.508;7.966;2023-04-01T08:20:08;11.30;99.90
6106;DHT22;3083;51.508;7.966;2023-04-01T08:22:41;11.20;99.90
6106;DHT22;3083;51.508;7.966;2023-04-01T08:25:13;11.20;99.90
6106;DHT22;3083;51.508;7.966;2023-04-01T08:27:46;11.20;99.90
6106;DHT22;3083;51.508;7.966;2023-04-01T08:30:18;11.10;99.90
6106;DHT22;3083;51.508;7.966;2023-04-01T08:32:49;11.10;99.90
6106;DHT22;3083;51.508;7.966;2023-04-01T08:35:26;11.10;99.90
6106;DHT22;3083;51.508;7.966;2023-04-01T08:37:55;11.10;99.90
6106;DHT22;3083;51.508;7.966;2023-04-01T08:40:55;11.10;99.90
6106;DHT22;3083;51.508;7.966;2023-04-01T08:46:46;11.20;99.90
6106;DHT22;3083;51.508;7.966;2023-04-01T08:49:36;11.20;99.90
6106;DHT22;3083;51.508;7.966;2023-04-01T08:52:21;11.20;99.90
6106;DHT22;3083;51.508;7.966;2023-04-01T09:01:13;11.10;99.90
6106;DHT22;3083;51.508;7.966;2023-04-01T09:04:21;11.10;99.90
6106;DHT22;3083;51.508;7.966;2023-04-01T09:07:03;11.10;99.90
6106;DHT22;3083;51.508;7.966;2023-04-01T09:12:51;11.20;99.90
6106;DHT22;3083;51.508;7.966;2023-04-01T09:18:57;11.30;99.90
6106;DHT22;3083;51.508;7.966;2023-04-01T09:21:37;11.30;99.90
6106;DHT22;3083;51.508;7.966;2023-04-01T09:27:13;11.30;99.90
6106;DHT22;3083;51.508;7.966;2023-04-01T09:30:14;11.40;99.90
6106;DHT22;3083;51.508;7.966;2023-04-01T09:33:05;11.50;99.90
6106;DHT22;3083;51.508;7.966;2023-04-01T09:35:46;11.80;99.90
6106;DHT22;3083;51.508;7.966;2023-04-01T09:38:21;12.00;99.90
6106;DHT22;3083;51.508;7.966;2023-04-01T09:40:55;12.20;99.90
6106;DHT22;3083;51.508;7.966;2023-04-01T09:43:27;12.40;99.90
6106;DHT22;3083;51.508;7.966;2023-04-01T09:46:17;12.60;99.90
6106;DHT22;3083;51.508;7.966;2023-04-01T09:52:21;12.50;99.90
6106;DHT22;3083;51.508;7.966;2023-04-01T09:55:06;12.30;99.90
6106;DHT22;3083;51.508;7.966;2023-04-01T10:04:17;11.80;99.90
6106;DHT22;3083;51.508;7.966;2023-04-01T10:13:09;11.40;99.90
6106;DHT22;3083;51.508;7.966;2023-04-01T10:21:59;11.30;99.90
6106;DHT22;3083;51.508;7.966;2023-04-01T10:24:44;11.30;99.90
6106;DHT22;3083;51.508;7.966;2023-04-01T10:27:42;11.30;99.90
6106;DHT22;3083;51.508;7.966;2023-04-01T10:33:45;11.20;99.90
6106;DHT22;3083;51.508;7.966;2023-04-01T10:36:41;11.10;99.90
6106;DHT22;3083;51.508;7.966;2023-04-01T10:40:00;11.10;99.90
6106;DHT22;3083;51.508;7.966;2023-04-01T10:49:10;11.20;99.90
6106;DHT22;3083;51.508;7.966;2023-04-01T10:54:46;11.20;99.90
6106;DHT22;3083;51.508;7.966;2023-04-01T11:00:50;11.20;99.90
6106;DHT22;3083;51.508;7.966;2023-04-01T11:04:04;11.20;99.90
6106;DHT22;3083;51.508;7.966;2023-04-01T11:13:33;11.10;99.90
6106;DHT22;3083;51.508;7.966;2023-04-01T11:16:28;11.10;99.90
6106;DHT22;3083;51.508;7.966;2023-04-01T11:19:16;11.00;99.90
6106;DHT22;3083;51.508;7.966;2023-04-01T11:22:12;11.00;99.90
6106;DHT22;3083;51.508;7.966;2023-04-01T11:25:05;11.00;99.90
6106;DHT22;3083;51.508;7.966;2023-04-01T11:27:52;11.00;99.90
6106;DHT22;3083;51.508;7.966;2023-04-01T11:30:32;11.00;99.90
6106;DHT22;3083;51.508;7.966;2023-04-01T11:33:04;11.10;99.90
6106;DHT22;3083;51.508;7.966;2023-04-01T11:35:42;11.30;99.90
6106;DHT22;3083;51.508;7.966;2023-04-01T11:38:23;11.30;99.90
6106;DHT22;3083;51.508;7.966;2023-04-01T11:40:56;11.40;99.90
6106;DHT22;3083;51.508;7.966;2023-04-01T11:43:30;11.40;99.90
6106;DHT22;3083;51.508;7.966;2023-04-01T11:46:00;11.40;99.90
6106;DHT22;3083;51.508;7.966;2023-04-01T11:51:42;11.30;99.90
6106;DHT22;3083;51.508;7.966;2023-04-01T11:54:22;11.40;99.90
6106;DHT22;3083;51.508;7.966;2023-04-01T11:57:03;11.40;99.90
6106;DHT22;3083;51.508;7.966;2023-04-01T11:59:57;11.40;99.90
6106;DHT22;3083;51.508;7.966;2023-04-01T12:02:36;11.50;99.90
6106;DHT22;3083;51.508;7.966;2023-04-01T12:05:27;11.60;99.90
6106;DHT22;3083;51.508;7.966;2023-04-01T12:08:07;11.60;99.90
6106;DHT22;3083;51.508;7.966;2023-04-01T12:10:39;11.60;99.90
6106;DHT22;3083;51.508;7.966;2023-04-01T12:13:17;11.60;99.90
6106;DHT22;3083;51.508;7.966;2023-04-01T12:16:03;11.60;99.90
6106;DHT22;3083;51.508;7.966;2023-04-01T12:18:36;11.60;99.90
6106;DHT22;3083;51.508;7.966;2023-04-01T12:21:14;11.50;99.90
6106;DHT22;3083;51.508;7.966;2023-04-01T12:24:19;11.30;99.90
6106;DHT22;3083;51.508;7.966;2023-04-01T12:26:55;11.30;99.90
6106;DHT22;3083;51.508;7.966;2023-04-01T12:29:48;11.20;99.90
6106;DHT22;3083;51.508;7.966;2023-04-01T12:32:25;11.20;99.90
6106;DHT22;3083;51.508;7.966;2023-04-01T12:35:10;11.20;99.90
6106;DHT22;3083;51.508;7.966;2023-04-01T12:37:47;11.20;99.90
6106;DHT22;3083;51.508;7.966;2023-04-01T12:40:35;11.30;99.90
6106;DHT22;3083;51.508;7.966;2023-04-01T12:43:22;11.30;99.90
6106;DHT22;3083;51.508;7.966;2023-04-01T12:46:01;11.30;99.90
6106;DHT22;3083;51.508;7.966;2023-04-01T12:51:45;11.40;99.90
6106;DHT22;3083;51.508;7.966;2023-04-01T12:57:58;11.30;99.90
6106;DHT22;3083;51.508;7.966;2023-04-01T13:00:41;11.20;99.90
6106;DHT22;3083;51.508;7.966;2023-04-01T13:03:20;11.10;99.90
6106;DHT22;3083;51.508;7.966;2023-04-01T13:09:02;11.10;99.90
6106;DHT22;3083;51.508;7.966;2023-04-01T13:11:42;11.10;99.90
6106;DHT22;3083;51.508;7.966;2023-04-01T13:17:25;11.20;99.90
6106;DHT22;3083;51.508;7.966;2023-04-01T13:19:57;11.30;99.90
6106;DHT22;3083;51.508;7.966;2023-04-01T13:22:41;11.40;99.90
6106;DHT22;3083;51.508;7.966;2023-04-01T13:25:19;11.50;99.90
6106;DHT22;3083;51.508;7.966;2023-04-01T13:27:51;11.60;99.90
6106;DHT22;3083;51.508;7.966;2023-04-01T13:30:25;11.70;99.90
6106;DHT22;3083;51.508;7.966;2023-04-01T13:33:01;11.70;99.90
6106;DHT22;3083;51.508;7.966;2023-04-01T13:35:37;11.70;99.90
6106;DHT22;3083;51.508;7.966;2023-04-01T13:38:27;11.70;99.90
6106;DHT22;3083;51.508;7.966;2023-04-01T13:41:04;11.70;99.90
6106;DHT22;3083;51.508;7.966;2023-04-01T13:43:37;11.70;99.90
6106;DHT22;3083;51.508;7.966;2023-04-01T13:46:27;11.70;99.90
6106;DHT22;3083;51.508;7.966;2023-04-01T13:49:17;11.70;99.90
6106;DHT22;3083;51.508;7.966;2023-04-01T13:52:00;11.70;99.90
6106;DHT22;3083;51.508;7.966;2023-04-01T13:54:52;11.70;99.90
6106;DHT22;3083;51.508;7.966;2023-04-01T13:57:48;11.60;99.90
6106;DHT22;3083;51.508;7.966;2023-04-01T14:00:28;11.60;99.90
6106;DHT22;3083;51.508;7.966;2023-04-01T14:03:37;11.50;99.90
6106;DHT22;3083;51.508;7.966;2023-04-01T14:06:23;11.50;99.90
6106;DHT22;3083;51.508;7.966;2023-04-01T14:09:15;11.40;99.90
6106;DHT22;3083;51.508;7.966;2023-04-01T14:11:53;11.40;99.90
6106;DHT22;3083;51.508;7.966;2023-04-01T14:14:33;11.40;99.90
6106;DHT22;3083;51.508;7.966;2023-04-01T14:17:13;11.40;99.90
6106;DHT22;3083;51.508;7.966;2023-04-01T14:22:46;11.30;99.90
6106;DHT22;3083;51.508;7.966;2023-04-01T14:25:30;11.30;99.90
6106;DHT22;3083;51.508;7.966;2023-04-01T14:28:12;11.20;99.90
6106;DHT22;3083;51.508;7.966;2023-04-01T14:30:59;11.10;99.90
6106;DHT22;3083;51.508;7.966;2023-04-01T14:33:37;11.00;99.90
6106;DHT22;3083;51.508;7.966;2023-04-01T14:36:33;10.90;99.90
6106;DHT22;3083;51.508;7.966;2023-04-01T14:39:20;10.80;99.90
6106;DHT22;3083;51.508;7.966;2023-04-01T14:41:54;10.80;99.90
6106;DHT22;3083;51.508;7.966;2023-04-01T14:44:36;10.70;99.90
6106;DHT22;3083;51.508;7.966;2023-04-01T14:47:22;10.70;99.90
6106;DHT22;3083;51.508;7.966;2023-04-01T14:49:54;10.60;99.90
6106;DHT22;3083;51.508;7.966;2023-04-01T14:52:32;10.60;99.90
6106;DHT22;3083;51.508;7.966;2023-04-01T14:55:10;10.60;99.90
6106;DHT22;3083;51.508;7.966;2023-04-01T14:57:41;10.60;99.90
6106;DHT22;3083;51.508;7.966;2023-04-01T15:00:13;10.60;99.90
6106;DHT22;3083;51.508;7.966;2023-04-01T15:02:48;10.60;99.90
6106;DHT22;3083;51.508;7.966;2023-04-01T15:05:31;10.60;99.90
6106;DHT22;3083;51.508;7.966;2023-04-01T15:08:15;10.60;99.90
6106;DHT22;3083;51.508;7.966;2023-04-01T15:10:53;10.60;99.90
6106;DHT22;3083;51.508;7.966;2023-04-01T15:13:38;10.60;99.90
6106;DHT22;3083;51.508;7.966;2023-04-01T15:16:11;10.60;99.90
6106;DHT22;3083;51.508;7.966;2023-04-01T15:18:44;10.60;99.90
6106;DHT22;3083;51.508;7.966;2023-04-01T15:21:30;10.70;99.90
6106;DHT22;3083;51.508;7.966;2023-04-01T15:24:05;10.70;99.90
6106;DHT22;3083;51.508;7.966;2023-04-01T15:26:46;10.70;99.90
6106;DHT22;3083;51.508;7.966;2023-04-01T15:29:39;10.70;99.90
6106;DHT22;3083;51.508;7.966;2023-04-01T15:32:17;10.80;99.90
6106;DHT22;3083;51.508;7.966;2023-04-01T15:34:52;10.80;99.90
6106;DHT22;3083;51.508;7.966;2023-04-01T15:37:31;10.80;99.90
6106;DHT22;3083;51.508;7.966;2023-04-01T15:40:14;10.80;99.90
6106;DHT22;3083;51.508;7.966;2023-04-01T15:42:58;10.80;99.90
6106;DHT22;3083;51.508;7.966;2023-04-01T15:45:39;10.80;99.90
6106;DHT22;3083;51.508;7.966;2023-04-01T15:48:25;10.80;99.90
6106;DHT22;3083;51.508;7.966;2023-04-01T15:51:01;10.80;99.90
6106;DHT22;3083;51.508;7.966;2023-04-01T15:56:49;10.80;99.90
6106;DHT22;3083;51.508;7.966;2023-04-01T15:59:47;10.80;99.90
6106;DHT22;3083;51.508;7.966;2023-04-01T16:02:21;10.90;99.90
6106;DHT22;3083;51.508;7.966;2023-04-01T16:04:55;10.80;99.90
6106;DHT22;3083;51.508;7.966;2023-04-01T16:07:38;10.80;99.90
6106;DHT22;3083;51.508;7.966;2023-04-01T16:10:27;10.80;99.90
6106;DHT22;3083;51.508;7.966;2023-04-01T16:13:08;10.80;99.90
6106;DHT22;3083;51.508;7.966;2023-04-01T16:15:49;10.70;99.90
6106;DHT22;3083;51.508;7.966;2023-04-01T16:18:32;10.70;99.90
6106;DHT22;3083;51.508;7.966;2023-04-01T16:21:04;10.70;99.90
6106;DHT22;3083;51.508;7.966;2023-04-01T16:23:37;10.70;99.90
6106;DHT22;3083;51.508;7.966;2023-04-01T16:26:08;10.60;99.90
6106;DHT22;3083;51.508;7.966;2023-04-01T16:28:47;10.60;99.90
6106;DHT22;3083;51.508;7.966;2023-04-01T16:31:30;10.60;99.90
6106;DHT22;3083;51.508;7.966;2023-04-01T16:34:02;10.60;99.90
6106;DHT22;3083;51.508;7.966;2023-04-01T16:36:36;10.60;99.90
6106;DHT22;3083;51.508;7.966;2023-04-01T16:39:19;10.50;99.90
6106;DHT22;3083;51.508;7.966;2023-04-01T16:41:51;10.50;99.90
6106;DHT22;3083;51.508;7.966;2023-04-01T16:44:23;10.50;99.90
6106;DHT22;3083;51.508;7.966;2023-04-01T16:46:52;10.50;99.90
6106;DHT22;3083;51.508;7.966;2023-04-01T16:49:27;10.50;99.90
6106;DHT22;3083;51.508;7.966;2023-04-01T16:52:04;10.50;99.90
6106;DHT22;3083;51.508;7.966;2023-04-01T16:54:43;10.50;99.90
6106;DHT22;3083;51.508;7.966;2023-04-01T16:57:18;10.40;99.90
6106;DHT22;3083;51.508;7.966;2023-04-01T16:59:52;10.40;99.90
6106;DHT22;3083;51.508;7.966;2023-04-01T17:02:26;10.40;99.90
6106;DHT22;3083;51.508;7.966;2023-04-01T17:05:00;10.30;99.90
6106;DHT22;3083;51.508;7.966;2023-04-01T17:07:40;10.30;99.90
6106;DHT22;3083;51.508;7.966;2023-04-01T17:13:21;10.20;99.90
6106;DHT22;3083;51.508;7.966;2023-04-01T17:15:59;10.20;99.90
6106;DHT22;3083;51.508;7.966;2023-04-01T17:18:33;10.20;99.90
6106;DHT22;3083;51.508;7.966;2023-04-01T17:21:07;10.20;99.90
6106;DHT22;3083;51.508;7.966;2023-04-01T17:23:41;10.20;99.90
6106;DHT22;3083;51.508;7.966;2023-04-01T17:26:21;10.10;99.90
6106;DHT22;3083;51.508;7.966;2023-04-01T17:28:52;10.10;99.90
6106;DHT22;3083;51.508;7.966;2023-04-01T17:31:43;10.10;99.90
6106;DHT22;3083;51.508;7.966;2023-04-01T17:34:29;10.10;99.90
6106;DHT22;3083;51.508;7.966;2023-04-01T17:37:10;10.10;99.90
6106;DHT22;3083;51.508;7.966;2023-04-01T17:40:00;10.10;99.90
6106;DHT22;3083;51.508;7.966;2023-04-01T17:42:37;10.10;99.90
6106;DHT22;3083;51.508;7.966;2023-04-01T17:45:11;10.10;99.90
6106;DHT22;3083;51.508;7.966;2023-04-01T17:47:52;10.10;99.90
6106;DHT22;3083;51.508;7.966;2023-04-01T17:50:30;10.10;99.90
6106;DHT22;3083;51.508;7.966;2023-04-01T17:53:12;10.00;99.90
6106;DHT22;3083;51.508;7.966;2023-04-01T17:55:54;10.00;99.90
6106;DHT22;3083;51.508;7.966;2023-04-01T17:58:29;10.00;99.90
6106;DHT22;3083;51.508;7.966;2023-04-01T18:01:09;10.00;99.90
6106;DHT22;3083;51.508;7.966;2023-04-01T18:04:10;10.00;99.90
6106;DHT22;3083;51.508;7.966;2023-04-01T18:07:02;10.00;99.90
6106;DHT22;3083;51.508;7.966;2023-04-01T18:09:40;9.90;99.90
6106;DHT22;3083;51.508;7.966;2023-04-01T18:12:16;9.90;99.90
6106;DHT22;3083;51.508;7.966;2023-04-01T18:15:05;9.90;99.90
6106;DHT22;3083;51.508;7.966;2023-04-01T18:17:45;9.90;99.90
6106;DHT22;3083;51.508;7.966;2023-04-01T18:20:29;9.90;99.90
6106;DHT22;3083;51.508;7.966;2023-04-01T18:23:02;9.90;99.90
6106;DHT22;3083;51.508;7.966;2023-04-01T18:25:33;9.80;99.90
6106;DHT22;3083;51.508;7.966;2023-04-01T18:28:30;9.80;99.90
6106;DHT22;3083;51.508;7.966;2023-04-01T18:31:10;9.80;99.90
6106;DHT22;3083;51.508;7.966;2023-04-01T18:33:45;9.80;99.90
6106;DHT22;3083;51.508;7.966;2023-04-01T18:36:19;9.80;99.90
6106;DHT22;3083;51.508;7.966;2023-04-01T18:38:51;9.80;99.90
6106;DHT22;3083;51.508;7.966;2023-04-01T18:41:26;9.80;99.90